Time;durP1;ratioP1;P1;durP2;ratioP2;P2;SDS_P1;SDS_P2;PMS_P1;PMS_P2;Temp;Humidity;BMP_temperature;BMP_pressure;BME280_temperature;BME280_humidity;BME280_pressure;Samples;Min_cycle;Max_cycle;Signal;HPM_P1;HPM_P2
2023/06/29 00:00:11;;;;;;;4.53;3.35;;;21.10;60.80;;;;;;5074678;28;20044;-41
2023/06/29 00:02:38;;;;;;;4.68;3.30;;;22.00;78.00;;;;;;5074538;28;20048;-39
2023/06/29 00:05:06;;;;;;;3.88;3.20;;;21.90;63.90;;;;;;5074762;28;20053;-36
2023/06/29 00:07:33;;;;;;;4.30;3.25;;;20.90;77.00;;;;;;5075818;28;20128;-41
2023/06/29 00:10:00;;;;;;;4.15;3.28;;;21.30;77.30;;;;;;5074604;28;20547;-40
2023/06/29 00:12:27;;;;;;;3.92;3.20;;;;;;;;;;5074388;28;20106;-37
2023/06/29 00:14:55;;;;;;;4.13;3.25;;;21.60;77.80;;;;;;5074525;28;20044;-40
2023/06/29 00:17:22;;;;;;;4.43;3.17;;;20.80;77.00;;;;;;5074380;28;20049;-40
2023/06/29 00:19:50;;;;;;;4.75;3.25;;;;;;;;;;5074343;28;20141;-37
2023/06/29 00:22:16;;;;;;;4.25;3.00;;;22.00;67.30;;;;;;5074348;28;20136;-40
2023/06/29 00:24:43;;;;;;;3.85;3.20;;;21.30;70.90;;;;;;5083767;28;20131;-41
2023/06/29 00:27:10;;;;;;;3.58;3.20;;;;;;;;;;5074187;28;20056;-40
2023/06/29 00:29:37;;;;;;;4.10;3.22;;;21.40;77.20;;;;;;5074347;28;20132;-40
2023/06/29 00:32:06;;;;;;;5.15;3.10;;;21.10;60.80;;;;;;5078633;28;20044;-38
2023/06/29 00:34:33;;;;;;;5.68;3.40;;;21.10;77.50;;;;;;5094315;28;20135;-38
2023/06/29 00:37:00;;;;;;;4.20;2.90;;;;;;;;;;5093714;28;20522;-36
2023/06/29 00:39:27;;;;;;;3.33;2.92;;;20.90;77.10;;;;;;5074779;28;20473;-41
2023/06/29 00:41:54;;;;;;;3.80;3.00;;;22.00;64.00;;;;;;5075404;28;20055;-39
2023/06/29 00:44:21;;;;;;;3.78;3.03;;;22.20;77.80;;;;;;5093605;28;20043;-40
2023/06/29 00:46:47;;;;;;;4.05;3.20;;;20.90;78.00;;;;;;5094277;28;20509;-40
2023/06/29 00:49:16;;;;;;;4.13;2.95;;;21.00;60.80;;;;;;5094290;28;20127;-39
2023/06/29 00:51:43;;;;;;;3.60;3.10;;;;;;;;;;5085788;28;20051;-38
2023/06/29 00:54:10;;;;;;;4.38;3.40;;;;;;;;;;5073677;28;20264;-41
2023/06/29 00:56:37;;;;;;;4.35;3.00;;;;;;;;;;5073825;28;20054;-34
2023/06/29 00:59:03;;;;;;;4.45;3.20;;;20.80;77.40;;;;;;5073523;28;20127;-40
2023/06/29 01:01:31;;;;;;;3.83;3.05;;;20.80;77.00;;;;;;5073747;28;20054;-41
2023/06/29 01:03:58;;;;;;;4.07;3.03;;;21.90;77.60;;;;;;5073515;28;20091;-38
2023/06/29 01:06:29;;;;;;;5.05;3.47;;;20.70;77.10;;;;;;5074796;28;20123;-39
2023/06/29 01:08:56;;;;;;;4.50;3.40;;;20.90;77.60;;;;;;5093718;28;20048;-41
2023/06/29 01:11:23;;;;;;;4.45;3.03;;;;;;;;;;5093617;28;20044;-40
2023/06/29 01:13:50;;;;;;;4.07;3.20;;;;;;;;;;5092015;28;20054;-41
2023/06/29 01:16:17;;;;;;;4.10;3.20;;;21.30;64.20;;;;;;5093811;28;20048;-38
2023/06/29 01:18:44;;;;;;;5.25;2.88;;;20.90;77.50;;;;;;5093644;28;20074;-40
2023/06/29 01:21:12;;;;;;;3.95;3.05;;;;;;;;;;5093400;28;20481;-37
2023/06/29 01:23:40;;;;;;;4.43;3.20;;;21.30;77.70;;;;;;5093023;28;20048;-41
2023/06/29 01:26:08;;;;;;;5.53;3.45;;;20.40;77.80;;;;;;5093296;28;20048;-40
2023/06/29 01:28:38;;;;;;;4.07;3.15;;;21.00;72.60;;;;;;5093273;28;20136;-41
2023/06/29 01:31:05;;;;;;;4.80;2.90;;;;;;;;;;5093383;28;20044;-41
2023/06/29 01:33:32;;;;;;;4.00;3.25;;;;;;;;;;5092909;28;20127;-38
2023/06/29 01:36:02;;;;;;;4.35;3.30;;;21.20;77.30;;;;;;5092711;28;20047;-41
2023/06/29 01:38:33;;;;;;;3.83;2.92;;;22.10;77.90;;;;;;5093144;28;20048;-40
2023/06/29 01:41:00;;;;;;;3.67;2.85;;;;;;;;;;5087357;28;20045;-41
2023/06/29 01:43:28;;;;;;;4.47;3.22;;;22.00;77.70;;;;;;5072660;28;20135;-38
2023/06/29 01:45:55;;;;;;;4.18;3.03;;;20.60;70.60;;;;;;5072809;28;20049;-38
2023/06/29 01:48:22;;;;;;;4.68;3.05;;;;;;;;;;5072646;28;20044;-35
2023/06/29 01:50:49;;;;;;;3.88;3.10;;;20.00;77.00;;;;;;5072650;28;20040;-36
2023/06/29 01:53:16;;;;;;;4.35;3.30;;;20.20;77.20;;;;;;5072488;28;20059;-38
2023/06/29 01:55:43;;;;;;;4.28;3.33;;;;;;;;;;5082977;28;20054;-36
2023/06/29 01:58:10;;;;;;;4.05;3.10;;;;;;;;;;5073640;28;20139;-36
2023/06/29 02:00:39;;;;;;;4.50;3.00;;;21.90;61.20;;;;;;5072682;28;20051;-36
2023/06/29 02:03:05;;;;;;;4.75;3.70;;;20.00;76.70;;;;;;5072586;28;20246;-39
2023/06/29 02:05:32;;;;;;;4.47;3.50;;;21.30;77.80;;;;;;5072350;28;20054;-39
2023/06/29 02:07:59;;;;;;;3.72;2.95;;;21.10;71.30;;;;;;5072441;28;20127;-37
2023/06/29 02:10:26;;;;;;;4.38;3.13;;;19.90;75.30;;;;;;5072264;28;20136;-39
2023/06/29 02:12:52;;;;;;;4.35;3.13;;;21.50;78.40;;;;;;5072256;28;20056;-40
2023/06/29 02:15:19;;;;;;;3.53;2.80;;;20.80;64.20;;;;;;5072497;28;20127;-38
2023/06/29 02:17:47;;;;;;;5.22;3.40;;;21.80;73.90;;;;;;5071938;28;20135;-39
2023/06/29 02:20:14;;;;;;;4.28;3.22;;;21.40;77.70;;;;;;5071322;28;20580;-40
2023/06/29 02:22:41;;;;;;;4.22;3.00;;;;;;;;;;5072043;28;20052;-37
2023/06/29 02:25:11;;;;;;;3.55;3.00;;;21.40;72.50;;;;;;5071984;28;20052;-39
2023/06/29 02:27:37;;;;;;;3.90;3.30;;;20.90;63.00;;;;;;5072029;28;20131;-36
2023/06/29 02:30:05;;;;;;;3.53;2.80;;;20.30;76.90;;;;;;5072215;28;20048;-39
2023/06/29 02:32:32;;;;;;;3.92;3.08;;;20.70;66.20;;;;;;5080400;28;20044;-39
2023/06/29 02:35:00;;;;;;;3.67;3.00;;;20.90;77.50;;;;;;5088278;28;20211;-40
2023/06/29 02:37:26;;;;;;;4.10;3.38;;;20.60;77.40;;;;;;5091562;28;20217;-38
2023/06/29 02:39:53;;;;;;;6.63;3.65;;;20.40;77.00;;;;;;5091825;28;20131;-37
2023/06/29 02:42:20;;;;;;;5.00;2.60;;;;;;;;;;5091788;28;20407;-37
2023/06/29 02:44:47;;;;;;;4.07;3.17;;;;;;;;;;5092028;28;20081;-37
2023/06/29 02:47:14;;;;;;;3.70;2.95;;;;;;;;;;5092068;28;20147;-36
2023/06/29 02:49:41;;;;;;;3.85;3.15;;;21.00;77.60;;;;;;5080210;28;20127;-39
2023/06/29 02:52:09;;;;;;;3.78;2.90;;;21.00;60.80;;;;;;5071754;28;20123;-36
2023/06/29 02:54:36;;;;;;;4.45;3.00;;;;;;;;;;5071653;28;20048;-35
2023/06/29 02:57:03;;;;;;;3.45;2.95;;;20.60;77.20;;;;;;5071720;28;20560;-38
2023/06/29 02:59:30;;;;;;;4.20;3.10;;;;;;;;;;5072060;28;20127;-36
2023/06/29 03:01:57;;;;;;;4.13;3.15;;;21.30;77.70;;;;;;5071593;28;20126;-39
2023/06/29 03:04:24;;;;;;;3.58;2.92;;;20.90;77.20;;;;;;5071623;28;20132;-41
2023/06/29 03:06:51;;;;;;;3.25;2.95;;;;;;;;;;5071909;28;20470;-35
2023/06/29 03:09:19;;;;;;;4.15;3.10;;;20.60;77.10;;;;;;5071712;28;20052;-38
2023/06/29 03:11:45;;;;;;;3.20;2.80;;;20.00;76.70;;;;;;5071722;28;20044;-37
2023/06/29 03:14:12;;;;;;;5.38;3.42;;;21.20;77.40;;;;;;5071220;28;20052;-40
2023/06/29 03:16:39;;;;;;;3.75;3.05;;;21.00;62.70;;;;;;5081844;28;20052;-39
2023/06/29 03:19:06;;;;;;;3.78;3.03;;;20.30;70.20;;;;;;5091830;28;20051;-37
2023/06/29 03:21:33;;;;;;;4.05;3.17;;;;;;;;;;5091570;28;20513;-37
2023/06/29 03:24:00;;;;;;;4.55;3.25;;;20.50;77.80;;;;;;5090996;28;20511;-38
2023/06/29 03:26:28;;;;;;;4.47;3.28;;;20.00;76.70;;;;;;5091952;28;20130;-40
2023/06/29 03:28:54;;;;;;;3.55;3.00;;;21.10;77.40;;;;;;5091400;28;20531;-38
2023/06/29 03:31:21;;;;;;;5.93;3.13;;;;;;;;;;5094139;28;20054;-36
2023/06/29 03:33:48;;;;;;;3.95;3.30;;;;;;;;;;5091432;28;20122;-39
2023/06/29 03:36:16;;;;;;;4.57;3.08;;;;;;;;;;5082838;28;20055;-38
2023/06/29 03:38:43;;;;;;;4.30;3.30;;;;;;;;;;5095517;28;20412;-39
2023/06/29 03:41:10;;;;;;;3.45;3.08;;;;;;;;;;5095198;28;20476;-36
2023/06/29 03:43:38;;;;;;;4.07;3.25;;;22.00;78.30;;;;;;5086614;28;20147;-39
2023/06/29 03:46:05;;;;;;;3.95;3.25;;;20.60;77.20;;;;;;5075170;28;20135;-37
2023/06/29 03:48:32;;;;;;;4.55;3.53;;;;;;;;;;5075255;28;20549;-40
2023/06/29 03:50:58;;;;;;;3.53;3.20;;;20.80;77.20;;;;;;5073831;28;20157;-38
2023/06/29 03:53:25;;;;;;;3.72;2.95;;;21.10;77.80;;;;;;5074683;28;20044;-39
2023/06/29 03:55:52;;;;;;;3.78;3.22;;;;;;;;;;5074932;28;20147;-37
2023/06/29 03:58:19;;;;;;;4.15;3.22;;;20.00;63.50;;;;;;5082402;28;20128;-39
2023/06/29 04:00:47;;;;;;;4.00;3.15;;;21.70;78.10;;;;;;5074962;28;20136;-38
2023/06/29 04:03:13;;;;;;;3.83;3.03;;;21.10;77.90;;;;;;5074285;28;20051;-40
2023/06/29 04:05:41;;;;;;;3.85;3.33;;;;;;;;;;5074808;28;20127;-35
2023/06/29 04:08:08;;;;;;;3.88;2.97;;;20.70;77.30;;;;;;5074643;28;20116;-40
2023/06/29 04:10:35;;;;;;;3.97;3.20;;;;;;;;;;5074528;28;20044;-34
2023/06/29 04:13:01;;;;;;;3.40;3.00;;;21.30;78.40;;;;;;5092884;28;20126;-37
2023/06/29 04:15:28;;;;;;;3.75;3.10;;;21.20;77.70;;;;;;5094860;28;20151;-39
2023/06/29 04:17:56;;;;;;;4.82;3.50;;;20.30;67.50;;;;;;5094901;28;20131;-36
2023/06/29 04:20:23;;;;;;;3.80;3.03;;;21.20;66.10;;;;;;5094682;28;20135;-37
2023/06/29 04:22:49;;;;;;;3.90;3.30;;;20.60;77.60;;;;;;5094379;28;20055;-38
2023/06/29 04:25:16;;;;;;;3.63;3.03;;;20.60;77.30;;;;;;5094219;28;20074;-39
2023/06/29 04:27:43;;;;;;;3.80;3.13;;;;;;;;;;5094500;28;20052;-35
2023/06/29 04:30:11;;;;;;;3.15;2.85;;;21.30;62.20;;;;;;5094663;28;20131;-40
2023/06/29 04:32:38;;;;;;;5.10;3.17;;;21.30;70.30;;;;;;5094418;28;20119;-38
2023/06/29 04:35:09;;;;;;;3.72;2.92;;;20.50;71.10;;;;;;5094058;28;20056;-40
2023/06/29 04:37:40;;;;;;;4.85;3.17;;;20.60;69.20;;;;;;5087957;28;20560;-39
2023/06/29 04:40:09;;;;;;;4.28;3.30;;;21.40;75.80;;;;;;5074419;28;20048;-36
2023/06/29 04:42:45;;;;;;;5.03;3.45;;;20.50;77.60;;;;;;5072779;28;20047;-37
2023/06/29 04:45:17;;;;;;;6.25;3.65;;;21.50;61.30;;;;;;5074141;28;20075;-36
2023/06/29 04:47:44;;;;;;;4.22;3.47;;;21.20;75.10;;;;;;5073924;28;20102;-37
2023/06/29 04:50:12;;;;;;;4.13;3.20;;;20.00;77.50;;;;;;5073951;28;20132;-40
2023/06/29 04:52:40;;;;;;;4.45;3.42;;;21.00;77.80;;;;;;5073662;28;20044;-40
2023/06/29 04:55:08;;;;;;;4.47;3.53;;;19.90;77.00;;;;;;5073901;28;20048;-39
2023/06/29 04:57:35;;;;;;;5.00;3.55;;;;;;;;;;5073783;28;20076;-38
2023/06/29 05:00:06;;;;;;;4.35;3.50;;;21.60;78.00;;;;;;5074229;28;20127;-40
2023/06/29 05:02:33;;;;;;;5.13;3.20;;;;;;;;;;5075696;28;20048;-33
2023/06/29 05:05:00;;;;;;;3.63;3.20;;;;;;;;;;5085889;28;20131;-35
2023/06/29 05:07:28;;;;;;;3.72;3.17;;;21.00;77.50;;;;;;5090749;28;20128;-39
2023/06/29 05:09:55;;;;;;;3.83;3.30;;;;;;;;;;5084461;28;20093;-39
2023/06/29 05:12:22;;;;;;;4.20;3.03;;;20.90;60.90;;;;;;5091798;28;20051;-34
2023/06/29 05:14:49;;;;;;;5.10;3.58;;;20.80;77.70;;;;;;5093718;28;20135;-38
2023/06/29 05:17:17;;;;;;;5.90;3.53;;;;;;;;;;5093684;28;20047;-36
2023/06/29 05:19:44;;;;;;;4.03;3.30;;;21.20;77.60;;;;;;5091053;28;20139;-38
2023/06/29 05:22:11;;;;;;;4.07;3.20;;;;;;;;;;5093457;28;20044;-33
2023/06/29 05:24:39;;;;;;;3.83;3.28;;;20.90;77.40;;;;;;5093525;28;20044;-38
2023/06/29 05:27:07;;;;;;;4.03;3.38;;;21.00;77.60;;;;;;5093729;28;20056;-40
2023/06/29 05:29:34;;;;;;;3.92;3.38;;;;;;;;;;5091444;28;20522;-38
2023/06/29 05:32:01;;;;;;;4.22;3.60;;;21.50;78.20;;;;;;5091229;28;20483;-40
2023/06/29 05:34:27;;;;;;;5.15;3.60;;;19.80;71.10;;;;;;5093224;28;20131;-41
2023/06/29 05:36:54;;;;;;;5.72;3.50;;;20.90;78.00;;;;;;5092267;28;20039;-41
2023/06/29 05:39:21;;;;;;;4.88;3.40;;;;;;;;;;5093044;28;20048;-40
2023/06/29 05:41:49;;;;;;;4.68;3.67;;;21.60;78.40;;;;;;5093144;28;20082;-40
2023/06/29 05:44:16;;;;;;;6.18;4.28;;;20.80;78.00;;;;;;5092742;28;20052;-40
2023/06/29 05:46:42;;;;;;;4.93;3.60;;;21.00;78.10;;;;;;5092025;28;20079;-41
2023/06/29 05:49:09;;;;;;;5.00;4.10;;;;;;;;;;5093154;28;20131;-39
2023/06/29 05:51:37;;;;;;;5.22;3.92;;;;;;;;;;5091883;28;20048;-39
2023/06/29 05:54:04;;;;;;;5.25;3.67;;;21.30;67.10;;;;;;5090283;28;20052;-38
2023/06/29 05:56:31;;;;;;;5.60;4.15;;;20.60;77.50;;;;;;5082958;28;20056;-41
2023/06/29 05:58:59;;;;;;;4.90;3.95;;;20.90;61.20;;;;;;5080530;28;20597;-37
2023/06/29 06:01:26;;;;;;;4.97;3.97;;;;;;;;;;5081086;28;20127;-37
2023/06/29 06:03:54;;;;;;;6.25;3.53;;;21.20;64.20;;;;;;5080492;28;20055;-41
2023/06/29 06:06:21;;;;;;;4.30;3.78;;;;;;;;;;5082545;28;20104;-38
2023/06/29 06:08:48;;;;;;;4.57;3.40;;;;;;;;;;5082816;28;20051;-35
2023/06/29 06:11:15;;;;;;;4.57;3.38;;;20.90;77.50;;;;;;5080727;28;20048;-40
2023/06/29 06:13:42;;;;;;;3.92;3.33;;;21.70;77.90;;;;;;5082107;28;20123;-39
2023/06/29 06:16:10;;;;;;;4.13;3.35;;;20.90;77.40;;;;;;5079638;28;20052;-39
2023/06/29 06:18:37;;;;;;;3.72;3.03;;;20.80;77.10;;;;;;5079042;28;20416;-40
2023/06/29 06:21:04;;;;;;;4.20;3.42;;;21.50;78.70;;;;;;5079835;28;20056;-41
2023/06/29 06:23:31;;;;;;;4.68;3.63;;;;;;;;;;5087501;28;20138;-37
2023/06/29 06:25:57;;;;;;;4.93;3.50;;;20.30;77.00;;;;;;5092455;28;20444;-31
2023/06/29 06:28:25;;;;;;;4.63;3.35;;;21.00;77.60;;;;;;5089862;28;20127;-30
2023/06/29 06:30:52;;;;;;;4.03;3.60;;;21.50;78.10;;;;;;5088039;28;20051;-31
2023/06/29 06:33:20;;;;;;;3.92;3.50;;;21.10;61.30;;;;;;5091475;28;20048;-34
2023/06/29 06:35:46;;;;;;;4.78;3.53;;;21.30;78.20;;;;;;5092176;28;20218;-30
2023/06/29 06:38:13;;;;;;;4.40;3.33;;;21.10;64.80;;;;;;5091639;28;20138;-33
2023/06/29 06:40:40;;;;;;;5.30;3.72;;;;;;;;;;5091715;28;20066;-31
2023/06/29 06:43:07;;;;;;;4.25;3.47;;;;;;;;;;5092022;28;20127;-37
2023/06/29 06:45:34;;;;;;;5.40;3.80;;;20.90;77.50;;;;;;5079693;28;20063;-31
2023/06/29 06:48:01;;;;;;;4.38;3.42;;;;;;;;;;5071932;28;20132;-34
2023/06/29 06:50:29;;;;;;;4.80;3.53;;;20.20;72.70;;;;;;5071735;28;20055;-34
2023/06/29 06:52:56;;;;;;;4.68;3.42;;;20.30;70.60;;;;;;5071600;28;20072;-33
2023/06/29 06:55:22;;;;;;;5.68;3.75;;;21.30;77.90;;;;;;5071414;28;20127;-32
2023/06/29 06:57:49;;;;;;;4.75;3.80;;;20.90;77.30;;;;;;5071709;28;20123;-31
2023/06/29 07:00:17;;;;;;;5.95;3.70;;;20.60;60.90;;;;;;5072974;28;20127;-33
2023/06/29 07:02:43;;;;;;;6.15;4.10;;;21.20;77.60;;;;;;5071342;28;20106;-31
2023/06/29 07:05:10;;;;;;;4.90;3.70;;;20.80;71.40;;;;;;5071015;28;20044;-32
2023/06/29 07:07:38;;;;;;;5.13;3.90;;;21.30;78.60;;;;;;5071117;28;20052;-32
2023/06/29 07:10:05;;;;;;;3.90;3.42;;;20.00;77.00;;;;;;5071838;28;20055;-32
2023/06/29 07:12:32;;;;;;;6.20;3.95;;;21.50;63.80;;;;;;5071445;28;20128;-34
2023/06/29 07:14:59;;;;;;;4.95;3.65;;;21.20;78.30;;;;;;5071441;28;20404;-31
2023/06/29 07:17:26;;;;;;;5.13;3.63;;;21.30;78.00;;;;;;5077101;28;20131;-31
2023/06/29 07:19:53;;;;;;;5.07;3.95;;;;;;;;;;5071432;28;20056;-33
2023/06/29 07:22:20;;;;;;;4.18;3.40;;;21.00;77.50;;;;;;5071095;28;20563;-32
2023/06/29 07:24:48;;;;;;;4.57;3.42;;;22.20;65.30;;;;;;5071592;28;20055;-32
2023/06/29 07:27:15;;;;;;;4.88;3.55;;;;;;;;;;5071693;28;20059;-35
2023/06/29 07:29:42;;;;;;;8.07;4.00;;;20.70;78.20;;;;;;5071210;28;20048;-32
2023/06/29 07:32:09;;;;;;;4.82;3.53;;;20.90;68.20;;;;;;5078857;28;20052;-33
2023/06/29 07:34:36;;;;;;;7.65;3.90;;;20.70;78.40;;;;;;5087336;28;20131;-32
2023/06/29 07:37:03;;;;;;;4.35;3.38;;;;;;;;;;5090970;28;20075;-35
2023/06/29 07:39:30;;;;;;;5.43;4.03;;;21.20;77.70;;;;;;5091739;28;20048;-32
2023/06/29 07:41:58;;;;;;;4.90;3.53;;;21.60;78.30;;;;;;5091134;28;20396;-31
2023/06/29 07:44:24;;;;;;;5.82;3.55;;;20.20;77.60;;;;;;5091292;28;20058;-31
2023/06/29 07:46:51;;;;;;;5.65;4.00;;;20.10;60.90;;;;;;5081263;28;20497;-32
2023/06/29 07:49:18;;;;;;;6.45;4.28;;;21.40;71.40;;;;;;5081548;28;20126;-32
2023/06/29 07:51:45;;;;;;;5.57;3.95;;;22.20;78.30;;;;;;5081090;28;20062;-40
2023/06/29 07:54:12;;;;;;;5.93;4.30;;;20.90;77.70;;;;;;5080223;28;20044;-39
2023/06/29 07:56:39;;;;;;;4.65;3.80;;;20.70;78.00;;;;;;5078790;28;20052;-39
2023/06/29 07:59:07;;;;;;;5.43;4.00;;;21.10;61.40;;;;;;5080425;28;20148;-35
2023/06/29 08:01:36;;;;;;;4.90;4.00;;;21.10;61.40;;;;;;5081190;28;20074;-34
2023/06/29 08:04:03;;;;;;;5.53;3.47;;;20.90;77.70;;;;;;5081109;28;20059;-40
2023/06/29 08:06:31;;;;;;;6.00;3.95;;;21.60;78.10;;;;;;5080154;28;20098;-40
2023/06/29 08:08:58;;;;;;;5.50;3.70;;;21.00;77.90;;;;;;5080625;28;20406;-39
2023/06/29 08:11:25;;;;;;;6.07;3.83;;;21.10;77.80;;;;;;5082561;28;20131;-39
2023/06/29 08:13:51;;;;;;;5.88;4.63;;;21.00;77.60;;;;;;5079478;28;20596;-41
2023/06/29 08:16:19;;;;;;;5.47;4.05;;;21.20;71.70;;;;;;5080414;28;20135;-35
2023/06/29 08:18:46;;;;;;;6.18;4.00;;;20.10;69.00;;;;;;5084670;28;20104;-40
2023/06/29 08:21:13;;;;;;;5.72;3.85;;;21.90;79.10;;;;;;5083227;28;20119;-40
2023/06/29 08:23:40;;;;;;;4.70;4.03;;;21.10;78.00;;;;;;5080257;28;20040;-40
2023/06/29 08:26:07;;;;;;;5.15;4.22;;;;;;;;;;5076174;28;20040;-35
2023/06/29 08:28:33;;;;;;;4.88;3.80;;;21.10;77.80;;;;;;5076738;28;20123;-41
2023/06/29 08:31:00;;;;;;;4.88;3.75;;;21.20;77.80;;;;;;5075955;28;20488;-37
2023/06/29 08:33:28;;;;;;;6.00;3.85;;;21.10;61.40;;;;;;5079680;28;20050;-36
2023/06/29 08:35:55;;;;;;;5.65;4.07;;;20.80;77.50;;;;;;5075488;28;20483;-40
2023/06/29 08:38:22;;;;;;;5.55;4.05;;;21.70;78.90;;;;;;5076467;28;20127;-40
2023/06/29 08:40:49;;;;;;;5.72;3.80;;;;;;;;;;5075373;28;20507;-36
2023/06/29 08:43:17;;;;;;;6.90;3.85;;;;;;;;;;5091227;28;20427;-36
2023/06/29 08:45:45;;;;;;;5.63;3.60;;;21.10;77.60;;;;;;5082542;28;20044;-39
2023/06/29 08:48:12;;;;;;;7.53;4.47;;;21.40;61.50;;;;;;5082390;28;20135;-40
2023/06/29 08:50:41;;;;;;;5.95;4.00;;;21.20;61.20;;;;;;5080921;28;20123;-37
2023/06/29 08:53:08;;;;;;;7.15;4.28;;;20.80;64.60;;;;;;5078068;28;20051;-40
2023/06/29 08:55:35;;;;;;;6.22;4.43;;;;;;;;;;5071630;28;20444;-35
2023/06/29 08:58:02;;;;;;;5.28;3.90;;;20.90;74.10;;;;;;5071952;28;20127;-40
2023/06/29 09:00:29;;;;;;;5.95;4.30;;;22.20;78.30;;;;;;5077200;28;20123;-38
2023/06/29 09:02:56;;;;;;;6.45;4.35;;;;;;;;;;5081965;28;20412;-37
2023/06/29 09:05:22;;;;;;;6.10;4.18;;;21.20;77.40;;;;;;5073474;28;20131;-41
2023/06/29 09:07:51;;;;;;;7.30;4.40;;;21.30;61.10;;;;;;5076350;28;20127;-40
2023/06/29 09:10:18;;;;;;;6.75;4.47;;;;;;;;;;5082681;28;20044;-37
2023/06/29 09:12:44;;;;;;;6.68;4.25;;;20.70;77.30;;;;;;5093529;28;20130;-41
2023/06/29 09:15:12;;;;;;;6.85;4.30;;;20.90;78.00;;;;;;5093688;28;20445;-41
2023/06/29 09:17:44;;;;;;;6.25;4.63;;;22.40;78.30;;;;;;5093543;28;20048;-41
2023/06/29 09:20:15;;;;;;;7.18;4.47;;;21.20;71.10;;;;;;5093540;28;20070;-41
2023/06/29 09:22:42;;;;;;;6.18;4.50;;;;;;;;;;5093178;28;20051;-37
2023/06/29 09:25:13;;;;;;;6.20;4.30;;;21.30;78.00;;;;;;5091494;28;20047;-40
2023/06/29 09:27:39;;;;;;;6.00;4.28;;;21.30;73.50;;;;;;5092856;28;20135;-41
2023/06/29 09:30:08;;;;;;;6.78;4.28;;;21.40;61.00;;;;;;5093049;28;20130;-37
2023/06/29 09:32:37;;;;;;;8.68;4.45;;;21.50;64.20;;;;;;5093100;28;20048;-39
2023/06/29 09:35:07;;;;;;;5.78;4.40;;;22.10;78.70;;;;;;5093341;28;20127;-41
2023/06/29 09:37:34;;;;;;;6.35;4.32;;;22.10;78.10;;;;;;5092161;28;20127;-39
2023/06/29 09:40:04;;;;;;;7.20;4.70;;;22.10;78.60;;;;;;5092795;28;20052;-41
2023/06/29 09:42:36;;;;;;;5.63;4.20;;;21.30;77.40;;;;;;5081256;28;20119;-41
2023/06/29 09:45:03;;;;;;;6.32;4.45;;;21.20;73.80;;;;;;5081678;28;20051;-40
2023/06/29 09:47:30;;;;;;;6.28;4.50;;;20.40;77.10;;;;;;5083379;28;20048;-40
2023/06/29 09:49:57;;;;;;;8.27;4.60;;;;;;;;;;5079889;28;20588;-35
2023/06/29 09:52:24;;;;;;;7.32;4.55;;;21.40;78.00;;;;;;5080480;28;20124;-41
2023/06/29 09:54:51;;;;;;;7.38;5.20;;;21.80;77.50;;;;;;5082657;28;20123;-41
2023/06/29 09:57:17;;;;;;;6.25;4.55;;;20.90;69.50;;;;;;5090674;28;20447;-38
2023/06/29 09:59:45;;;;;;;8.15;5.30;;;21.50;61.00;;;;;;5083034;28;20123;-40
2023/06/29 10:02:12;;;;;;;6.55;4.88;;;21.20;77.10;;;;;;5083163;28;20043;-40
2023/06/29 10:04:40;;;;;;;7.20;4.95;;;21.40;61.00;;;;;;5083763;28;20501;-38
2023/06/29 10:07:09;;;;;;;9.10;4.82;;;21.50;61.00;;;;;;5089830;28;20044;-36
2023/06/29 10:09:37;;;;;;;8.73;5.18;;;22.10;78.50;;;;;;5092208;28;20143;-39
2023/06/29 10:12:05;;;;;;;8.75;5.80;;;21.40;77.50;;;;;;5071804;28;20059;-40
2023/06/29 10:14:32;;;;;;;7.85;5.35;;;;;;;;;;5071737;28;20047;-35
2023/06/29 10:17:00;;;;;;;7.32;5.15;;;21.30;78.00;;;;;;5072100;28;20058;-32
2023/06/29 10:19:27;;;;;;;8.43;5.47;;;;;;;;;;5072000;28;20048;-31
2023/06/29 10:21:56;;;;;;;8.95;5.15;;;21.50;72.60;;;;;;5072127;28;20048;-34
2023/06/29 10:24:26;;;;;;;10.02;5.82;;;21.90;78.30;;;;;;5071965;28;20041;-32
2023/06/29 10:26:52;;;;;;;6.30;4.90;;;21.60;72.20;;;;;;5071111;28;20456;-32
2023/06/29 10:29:19;;;;;;;7.93;5.10;;;;;;;;;;5071338;28;20124;-35
2023/06/29 10:31:48;;;;;;;7.93;5.50;;;21.10;65.70;;;;;;5078732;28;20139;-34
2023/06/29 10:34:16;;;;;;;7.90;5.75;;;21.60;61.10;;;;;;5091920;28;20055;-32
2023/06/29 10:36:46;;;;;;;8.68;5.30;;;22.10;78.40;;;;;;5083647;28;20131;-31
2023/06/29 10:39:40;;;;;;;8.95;5.68;;;21.90;77.50;;;;;;5091980;28;20047;-32
2023/06/29 10:42:14;;;;;;;7.10;5.63;;;21.20;60.90;;;;;;5089672;28;20051;-34
2023/06/29 10:44:41;;;;;;;6.47;5.20;;;21.30;67.90;;;;;;5091822;28;20062;-32
2023/06/29 10:47:08;;;;;;;8.38;5.70;;;21.90;77.80;;;;;;5091848;28;20445;-32
2023/06/29 10:49:36;;;;;;;8.27;6.07;;;21.60;61.10;;;;;;5085282;28;20044;-35
2023/06/29 10:52:03;;;;;;;7.93;5.78;;;;;;;;;;5071758;28;20080;-35
2023/06/29 10:54:30;;;;;;;8.60;5.80;;;22.40;78.60;;;;;;5071390;28;20497;-38
2023/06/29 10:56:58;;;;;;;8.85;6.20;;;21.60;61.10;;;;;;5083349;28;20052;-38
2023/06/29 10:59:25;;;;;;;7.75;5.63;;;;;;;;;;5071498;28;20063;-36
2023/06/29 11:01:52;;;;;;;8.73;5.40;;;;;;;;;;5085843;28;20135;-40
2023/06/29 11:04:19;;;;;;;11.38;6.15;;;;;;;;;;5085560;28;20044;-35
2023/06/29 11:06:47;;;;;;;10.57;6.05;;;20.60;77.20;;;;;;5081086;28;20132;-40
2023/06/29 11:09:14;;;;;;;9.77;6.45;;;22.70;78.00;;;;;;5071558;28;20127;-40
2023/06/29 11:11:41;;;;;;;8.45;6.22;;;21.70;72.90;;;;;;5073740;28;20131;-38
2023/06/29 11:14:08;;;;;;;9.50;6.22;;;21.90;63.60;;;;;;5085394;28;20048;-39
2023/06/29 11:16:35;;;;;;;10.43;6.20;;;20.80;77.10;;;;;;5084548;28;20087;-40
2023/06/29 11:19:02;;;;;;;9.00;6.50;;;21.60;61.30;;;;;;5085432;28;20050;-38
2023/06/29 11:21:30;;;;;;;10.52;6.70;;;21.40;70.40;;;;;;5085508;28;20044;-38
2023/06/29 11:23:58;;;;;;;11.43;6.30;;;21.60;61.40;;;;;;5086342;28;20044;-36
2023/06/29 11:26:26;;;;;;;10.10;6.60;;;21.50;77.60;;;;;;5075714;28;20377;-37
2023/06/29 11:28:53;;;;;;;8.98;6.50;;;;;;;;;;5079391;28;20094;-35
2023/06/29 11:31:20;;;;;;;12.05;7.10;;;21.70;67.00;;;;;;5069276;28;20048;-37
2023/06/29 11:33:47;;;;;;;8.20;6.20;;;21.60;61.40;;;;;;5075058;28;20040;-40
2023/06/29 11:36:14;;;;;;;9.57;6.22;;;21.40;65.60;;;;;;5074788;28;20048;-40
2023/06/29 11:38:41;;;;;;;10.35;6.80;;;21.50;77.60;;;;;;5075283;28;20072;-39
2023/06/29 11:41:09;;;;;;;10.25;7.40;;;21.50;61.40;;;;;;5070888;28;20066;-39
2023/06/29 11:43:36;;;;;;;10.50;6.80;;;22.10;77.90;;;;;;5069865;28;20094;-41
2023/06/29 11:46:03;;;;;;;10.57;6.80;;;21.70;66.00;;;;;;5070203;28;20436;-34
2023/06/29 11:48:30;;;;;;;9.85;6.90;;;21.40;77.50;;;;;;5070642;28;20052;-32
2023/06/29 11:50:59;;;;;;;8.63;6.18;;;21.60;62.70;;;;;;5070669;28;20084;-33
2023/06/29 11:53:26;;;;;;;9.73;7.28;;;21.40;77.60;;;;;;5087747;28;20051;-32
2023/06/29 11:55:54;;;;;;;10.63;6.63;;;21.60;63.00;;;;;;5089930;28;20127;-33
2023/06/29 11:58:22;;;;;;;9.60;7.10;;;21.60;61.50;;;;;;5083518;28;20133;-37
2023/06/29 12:00:56;;;;;;;9.98;6.97;;;21.60;61.60;;;;;;5078805;28;20119;-38
2023/06/29 12:03:24;;;;;;;9.18;6.65;;;21.60;61.60;;;;;;5078364;28;20056;-38
2023/06/29 12:05:51;;;;;;;9.75;6.80;;;21.50;66.90;;;;;;5077800;28;20127;-39
2023/06/29 12:08:17;;;;;;;9.50;7.07;;;21.70;71.20;;;;;;5077551;28;20056;-38
2023/06/29 12:10:44;;;;;;;9.48;6.78;;;21.90;77.90;;;;;;5084890;28;20460;-39
2023/06/29 12:13:11;;;;;;;9.20;6.97;;;22.00;78.00;;;;;;5084015;28;20127;-40
2023/06/29 12:15:42;;;;;;;10.45;6.90;;;21.00;70.10;;;;;;5083534;28;20581;-39
2023/06/29 12:18:11;;;;;;;9.40;6.75;;;21.50;78.60;;;;;;5073992;28;20044;-41
2023/06/29 12:20:39;;;;;;;8.50;6.57;;;20.60;77.60;;;;;;5074198;28;20109;-40
2023/06/29 12:23:06;;;;;;;9.65;7.13;;;22.60;69.30;;;;;;5073507;28;20050;-40
2023/06/29 12:25:32;;;;;;;8.68;6.32;;;21.90;78.30;;;;;;5078570;28;20420;-41
2023/06/29 12:27:59;;;;;;;11.50;7.25;;;22.00;72.10;;;;;;5082967;28;20128;-41
2023/06/29 12:30:26;;;;;;;9.52;7.50;;;21.50;72.10;;;;;;5084471;28;20055;-41
2023/06/29 12:32:54;;;;;;;9.02;6.45;;;21.60;78.60;;;;;;5083284;28;20119;-41
2023/06/29 12:35:21;;;;;;;10.00;7.25;;;21.10;78.30;;;;;;5093912;28;20083;-41
2023/06/29 12:37:48;;;;;;;10.23;7.45;;;;;;;;;;5090304;28;20084;-38
2023/06/29 12:40:15;;;;;;;12.38;7.20;;;22.20;70.00;;;;;;5081276;28;20120;-40
2023/06/29 12:42:42;;;;;;;9.05;6.85;;;;;;;;;;5082340;28;20485;-39
2023/06/29 12:45:10;;;;;;;11.20;6.90;;;21.70;61.60;;;;;;5093241;28;20482;-41
2023/06/29 12:47:37;;;;;;;9.63;7.03;;;21.50;77.60;;;;;;5094349;28;20048;-41
2023/06/29 12:50:07;;;;;;;9.70;7.40;;;22.10;78.90;;;;;;5093957;28;20643;-41
2023/06/29 12:52:33;;;;;;;11.82;7.40;;;22.10;78.90;;;;;;5081223;28;20127;-40
2023/06/29 12:55:00;;;;;;;9.27;6.80;;;;;;;;;;5084455;28;20147;-41
2023/06/29 12:57:28;;;;;;;10.82;6.85;;;;;;;;;;5077617;28;20041;-40
2023/06/29 12:59:55;;;;;;;12.48;7.00;;;21.60;70.10;;;;;;5080348;28;20390;-41
2023/06/29 13:02:22;;;;;;;10.13;6.88;;;22.30;78.20;;;;;;5076572;28;20564;-38
2023/06/29 13:04:49;;;;;;;9.50;6.80;;;;;;;;;;5072180;28;20079;-41
2023/06/29 13:07:18;;;;;;;11.65;7.60;;;21.80;61.70;;;;;;5073076;28;20059;-39
2023/06/29 13:09:45;;;;;;;10.85;7.60;;;22.50;78.30;;;;;;5073689;28;20131;-41